Time,TemperatureF,DewpointF,PressureIn,WindDirection,WindDirectionDegrees,WindSpeedMPH,WindSpeedGustMPH,Humidity,HourlyPrecipIn,Conditions,Clouds,dailyrainin,SoftwareType,DateUTC
2013-02-24 00:00:00,42.5,38.5,30.20,ENE,68,0.0,1.1,86,0.00,,,0.00,WUHU216HW,2013-02-24 08:00:00,
2013-02-24 00:05:00,42.5,38.3,30.20,East,90,0.4,1.1,85,0.00,,,0.00,WUHU216HW,2013-02-24 08:05:00,
2013-02-24 00:10:00,42.5,38.3,30.19,ENE,68,0.4,1.1,85,0.00,,,0.00,WUHU216HW,2013-02-24 08:10:00,
2013-02-24 00:15:00,42.1,37.9,30.19,East,90,0.0,1.1,85,0.00,,,0.00,WUHU216HW,2013-02-24 08:15:00,
2013-02-24 00:20:00,41.9,37.7,30.19,ENE,68,0.2,1.1,85,0.00,,,0.00,WUHU216HW,2013-02-24 08:20:00,
2013-02-24 00:25:00,41.8,37.5,30.19,SSE,158,0.7,1.1,85,0.00,,,0.00,WUHU216HW,2013-02-24 08:25:00,
2013-02-24 00:30:00,41.9,37.7,30.19,WNW,293,0.0,1.1,85,0.00,,,0.00,WUHU216HW,2013-02-24 08:30:00,
2013-02-24 00:35:00,42.1,37.9,30.19,NW,315,0.0,0.9,85,0.00,,,0.00,WUHU216HW,2013-02-24 08:35:00,
2013-02-24 00:40:00,42.5,38.3,30.19,NW,315,0.0,0.9,85,0.00,,,0.00,WUHU216HW,2013-02-24 08:40:00,
2013-02-24 00:45:00,42.1,37.6,30.20,NE,45,0.4,1.8,84,0.00,,,0.00,WUHU216HW,2013-02-24 08:45:00,
2013-02-24 00:50:00,41.8,37.3,30.19,ESE,113,0.4,1.8,84,0.00,,,0.00,WUHU216HW,2013-02-24 08:50:00,
2013-02-24 00:55:00,41.4,36.9,30.20,SE,135,0.7,1.3,84,0.00,,,0.00,WUHU216HW,2013-02-24 08:55:00,
2013-02-24 01:00:00,42.1,38.2,30.20,NNE,23,1.1,4.3,86,0.00,,,0.00,WUHU216HW,2013-02-24 09:00:00,
2013-02-24 01:05:00,42.8,38.0,30.19,NNW,338,0.9,4.3,83,0.00,,,0.00,WUHU216HW,2013-02-24 09:05:00,
2013-02-24 01:10:00,43.6,37.8,30.20,North,0,1.1,2.2,80,0.00,,,0.00,WUHU216HW,2013-02-24 09:10:00,
2013-02-24 01:15:00,43.9,37.5,30.20,North,0,0.2,2.2,78,0.00,,,0.00,WUHU216HW,2013-02-24 09:15:00,
2013-02-24 01:20:00,43.9,37.5,30.20,West,270,1.1,2.5,78,0.00,,,0.00,WUHU216HW,2013-02-24 09:20:00,
2013-02-24 01:25:00,44.3,37.5,30.20,NW,315,0.9,2.5,77,0.00,,,0.00,WUHU216HW,2013-02-24 09:25:00,
2013-02-24 01:30:00,44.3,37.2,30.20,NNE,23,0.4,2.5,76,0.00,,,0.00,WUHU216HW,2013-02-24 09:30:00,
2013-02-24 01:35:00,43.7,37.0,30.20,North,0,0.4,1.6,77,0.00,,,0.00,WUHU216HW,2013-02-24 09:35:00,
2013-02-24 01:40:00,43.6,37.2,30.19,NNW,338,0.4,0.7,78,0.00,,,0.00,WUHU216HW,2013-02-24 09:40:00,
2013-02-24 01:45:00,43.7,37.0,30.19,NNW,338,0.4,1.8,77,0.00,,,0.00,WUHU216HW,2013-02-24 09:45:00,
2013-02-24 01:50:00,44.3,36.5,30.19,NNW,338,1.1,2.2,74,0.00,,,0.00,WUHU216HW,2013-02-24 09:50:00,
2013-02-24 01:55:00,45.0,34.7,30.19,NNW,338,0.7,2.2,67,0.00,,,0.00,WUHU216HW,2013-02-24 09:55:00,
2013-02-24 02:00:00,45.9,33.2,30.19,NNW,338,1.1,2.7,61,0.00,,,0.00,WUHU216HW,2013-02-24 10:00:00,
2013-02-24 02:05:00,46.8,32.3,30.19,NNW,338,0.7,3.4,57,0.00,,,0.00,WUHU216HW,2013-02-24 10:05:00,
2013-02-24 02:10:00,46.8,31.9,30.19,NNW,338,1.8,3.4,56,0.00,,,0.00,WUHU216HW,2013-02-24 10:10:00,
2013-02-24 02:15:00,46.8,31.4,30.19,NNW,338,0.4,1.8,55,0.00,,,0.00,WUHU216HW,2013-02-24 10:15:00,
2013-02-24 02:20:00,47.0,30.7,30.19,NW,315,3.4,3.4,53,0.00,,,0.00,WUHU216HW,2013-02-24 10:20:00,
2013-02-24 02:25:00,47.5,29.8,30.19,NNW,338,2.0,4.0,50,0.00,,,0.00,WUHU216HW,2013-02-24 10:25:00,
2013-02-24 02:30:00,48.4,29.5,30.19,WNW,293,2.7,4.0,48,0.00,,,0.00,WUHU216HW,2013-02-24 10:30:00,
2013-02-24 02:35:00,48.2,29.3,30.19,NNW,338,1.6,3.4,48,0.00,,,0.00,WUHU216HW,2013-02-24 10:35:00,
2013-02-24 02:40:00,47.5,30.3,30.19,NNW,338,1.1,2.9,51,0.00,,,0.00,WUHU216HW,2013-02-24 10:40:00,
2013-02-24 02:45:00,47.5,30.7,30.19,North,0,1.6,2.7,52,0.00,,,0.00,WUHU216HW,2013-02-24 10:45:00,
2013-02-24 02:50:00,47.3,30.1,30.19,NNW,338,1.3,2.5,51,0.00,,,0.00,WUHU216HW,2013-02-24 10:50:00,
2013-02-24 02:55:00,48.4,28.5,30.19,NE,45,2.7,5.4,46,0.00,,,0.00,WUHU216HW,2013-02-24 10:55:00,
2013-02-24 03:00:00,48.4,28.5,30.19,North,0,1.1,5.4,46,0.00,,,0.00,WUHU216HW,2013-02-24 11:00:00,
2013-02-24 03:05:00,48.1,28.6,30.18,NNW,338,1.3,2.9,47,0.00,,,0.00,WUHU216HW,2013-02-24 11:05:00,
2013-02-24 03:10:00,47.7,28.4,30.18,NW,315,1.3,2.9,47,0.00,,,0.00,WUHU216HW,2013-02-24 11:10:00,
2013-02-24 03:15:00,47.0,32.1,30.18,NW,315,1.3,2.5,56,0.00,,,0.00,WUHU216HW,2013-02-24 11:15:00,
2013-02-24 03:20:00,45.9,33.2,30.18,WSW,248,2.5,2.5,61,0.00,,,0.00,WUHU216HW,2013-02-24 11:20:00,
2013-02-24 03:25:00,45.0,35.1,30.18,WSW,248,1.3,2.5,68,0.00,,,0.00,WUHU216HW,2013-02-24 11:25:00,
2013-02-24 03:30:00,44.3,35.1,30.18,WSW,248,1.1,2.0,70,0.00,,,0.00,WUHU216HW,2013-02-24 11:30:00,
2013-02-24 03:35:00,43.7,35.0,30.18,WSW,248,1.1,1.8,71,0.00,,,0.00,WUHU216HW,2013-02-24 11:35:00,
2013-02-24 03:40:00,43.2,34.8,30.18,NNW,338,0.7,1.6,72,0.00,,,0.00,WUHU216HW,2013-02-24 11:40:00,
2013-02-24 03:45:00,43.0,35.0,30.18,NW,315,1.8,1.8,73,0.00,,,0.00,WUHU216HW,2013-02-24 11:45:00,
2013-02-24 03:50:00,43.6,34.8,30.18,NNW,338,1.8,2.0,71,0.00,,,0.00,WUHU216HW,2013-02-24 11:50:00,
2013-02-24 03:55:00,43.7,34.7,30.18,NNW,338,1.1,2.0,70,0.00,,,0.00,WUHU216HW,2013-02-24 11:55:00,
2013-02-24 04:00:00,43.6,34.8,30.19,NNW,338,1.8,2.2,71,0.00,,,0.00,WUHU216HW,2013-02-24 12:00:00,
2013-02-24 04:05:00,43.6,34.5,30.18,North,0,0.4,2.5,70,0.00,,,0.00,WUHU216HW,2013-02-24 12:05:00,
2013-02-24 04:10:00,43.4,33.9,30.18,NW,315,1.1,2.5,69,0.00,,,0.00,WUHU216HW,2013-02-24 12:10:00,
2013-02-24 04:15:00,43.6,33.8,30.18,NW,315,2.2,2.5,68,0.00,,,0.00,WUHU216HW,2013-02-24 12:15:00,
2013-02-24 04:20:00,43.9,33.3,30.18,NNW,338,2.2,3.4,66,0.00,,,0.00,WUHU216HW,2013-02-24 12:20:00,
2013-02-24 04:25:00,44.3,32.9,30.18,NW,315,2.0,3.4,64,0.00,,,0.00,WUHU216HW,2013-02-24 12:25:00,
2013-02-24 04:30:00,44.3,32.5,30.19,NNW,338,2.7,3.4,63,0.00,,,0.00,WUHU216HW,2013-02-24 12:30:00,
2013-02-24 04:36:00,44.3,32.0,30.19,NW,315,2.2,3.4,62,0.00,,,0.00,WUHU216HW,2013-02-24 12:36:00,
2013-02-24 04:41:00,44.5,30.6,30.18,NNW,338,1.8,3.8,58,0.00,,,0.00,WUHU216HW,2013-02-24 12:41:00,
2013-02-24 04:46:00,44.8,30.5,30.19,WNW,293,4.0,5.1,57,0.00,,,0.00,WUHU216HW,2013-02-24 12:46:00,
2013-02-24 04:51:00,45.9,28.4,30.19,WNW,293,3.1,5.1,50,0.00,,,0.00,WUHU216HW,2013-02-24 12:51:00,
2013-02-24 04:56:00,46.6,27.9,30.19,NW,315,3.6,4.0,48,0.00,,,0.00,WUHU216HW,2013-02-24 12:56:00,
2013-02-24 05:01:00,46.8,27.0,30.19,NNW,338,2.5,4.3,46,0.00,,,0.00,WUHU216HW,2013-02-24 13:01:00,
2013-02-24 05:06:00,46.8,29.2,30.19,NNW,338,3.8,4.9,50,0.00,,,0.00,WUHU216HW,2013-02-24 13:06:00,
2013-02-24 05:11:00,46.4,28.3,30.19,NNW,338,1.3,4.9,49,0.00,,,0.00,WUHU216HW,2013-02-24 13:11:00,
2013-02-24 05:16:00,46.6,27.4,30.19,West,270,2.5,5.1,47,0.00,,,0.00,WUHU216HW,2013-02-24 13:16:00,
2013-02-24 05:21:00,46.4,27.7,30.19,NW,315,2.5,5.1,48,0.00,,,0.00,WUHU216HW,2013-02-24 13:21:00,
2013-02-24 05:26:00,45.7,29.1,30.18,NW,315,1.8,3.4,52,0.00,,,0.00,WUHU216HW,2013-02-24 13:26:00,
2013-02-24 05:31:00,46.1,28.4,30.18,NW,315,2.0,4.0,50,0.00,,,0.00,WUHU216HW,2013-02-24 13:31:00,
2013-02-24 05:36:00,46.8,26.5,30.18,NNW,338,2.0,5.4,45,0.00,,,0.00,WUHU216HW,2013-02-24 13:36:00,
2013-02-24 05:41:00,47.3,25.8,30.18,NW,315,3.6,5.4,43,0.00,,,0.00,WUHU216HW,2013-02-24 13:41:00,
2013-02-24 05:46:00,48.2,24.4,30.18,NNW,338,4.7,6.3,39,0.00,,,0.00,WUHU216HW,2013-02-24 13:46:00,
2013-02-24 05:51:00,49.3,24.7,30.18,NW,315,1.8,6.9,38,0.00,,,0.00,WUHU216HW,2013-02-24 13:51:00,
2013-02-24 05:56:00,49.3,24.7,30.18,NW,315,2.5,6.9,38,0.00,,,0.00,WUHU216HW,2013-02-24 13:56:00,
2013-02-24 06:01:00,49.3,24.7,30.18,NNW,338,3.4,6.9,38,0.00,,,0.00,WUHU216HW,2013-02-24 14:01:00,
2013-02-24 06:06:00,49.0,24.3,30.19,WNW,293,1.8,6.9,38,0.00,,,0.00,WUHU216HW,2013-02-24 14:06:00,
2013-02-24 06:11:00,49.0,24.3,30.19,NNW,338,1.8,6.3,38,0.00,,,0.00,WUHU216HW,2013-02-24 14:11:00,
2013-02-24 06:16:00,48.6,24.0,30.19,North,0,3.6,6.3,38,0.00,,,0.00,WUHU216HW,2013-02-24 14:16:00,
2013-02-24 06:21:00,48.8,24.1,30.19,NNW,338,2.9,5.4,38,0.00,,,0.00,WUHU216HW,2013-02-24 14:21:00,
2013-02-24 06:26:00,49.3,24.7,30.19,North,0,2.2,4.9,38,0.00,,,0.00,WUHU216HW,2013-02-24 14:26:00,
2013-02-24 06:31:00,48.8,24.1,30.19,NNW,338,2.5,4.9,38,0.00,,,0.00,WUHU216HW,2013-02-24 14:31:00,
2013-02-24 06:36:00,49.3,24.7,30.19,NNW,338,1.6,4.9,38,0.00,,,0.00,WUHU216HW,2013-02-24 14:36:00,
2013-02-24 06:41:00,49.3,24.7,30.20,NNW,338,6.3,6.3,38,0.00,,,0.00,WUHU216HW,2013-02-24 14:41:00,
2013-02-24 06:46:00,49.0,24.3,30.20,WNW,293,5.8,6.3,38,0.00,,,0.00,WUHU216HW,2013-02-24 14:46:00,
2013-02-24 06:51:00,49.0,24.3,30.20,NNW,338,6.9,7.8,38,0.00,,,0.00,WUHU216HW,2013-02-24 14:51:00,
2013-02-24 06:56:00,49.0,24.3,30.20,North,0,7.8,7.8,38,0.00,,,0.00,WUHU216HW,2013-02-24 14:56:00,
2013-02-24 07:01:00,49.0,24.3,30.20,North,0,4.7,7.8,38,0.00,,,0.00,WUHU216HW,2013-02-24 15:01:00,
2013-02-24 07:06:00,48.8,24.1,30.21,NNW,338,2.5,7.8,38,0.00,,,0.00,WUHU216HW,2013-02-24 15:06:00,
2013-02-24 07:11:00,48.4,23.9,30.21,NNW,338,3.1,4.9,38,0.00,,,0.00,WUHU216HW,2013-02-24 15:11:00,
2013-02-24 07:16:00,48.4,24.5,30.21,NNW,338,2.9,5.4,39,0.00,,,0.00,WUHU216HW,2013-02-24 15:16:00,
2013-02-24 07:21:00,47.7,25.7,30.21,NW,315,2.7,5.4,42,0.00,,,0.00,WUHU216HW,2013-02-24 15:21:00,
2013-02-24 07:26:00,47.2,26.2,30.21,NNW,338,4.0,5.4,44,0.00,,,0.00,WUHU216HW,2013-02-24 15:26:00,
2013-02-24 07:31:00,47.2,26.2,30.21,WNW,293,2.2,5.4,44,0.00,,,0.00,WUHU216HW,2013-02-24 15:31:00,
2013-02-24 07:36:00,47.0,26.0,30.21,NNW,338,4.0,5.1,44,0.00,,,0.00,WUHU216HW,2013-02-24 15:36:00,
2013-02-24 07:41:00,47.2,26.7,30.21,NW,315,4.0,5.1,45,0.00,,,0.00,WUHU216HW,2013-02-24 15:41:00,
2013-02-24 07:46:00,47.2,27.3,30.21,NW,315,1.8,4.3,46,0.00,,,0.00,WUHU216HW,2013-02-24 15:46:00,
2013-02-24 07:51:00,47.3,28.0,30.21,NNW,338,2.7,4.3,47,0.00,,,0.00,WUHU216HW,2013-02-24 15:51:00,
2013-02-24 07:56:00,47.5,28.7,30.22,West,270,4.0,4.3,48,0.00,,,0.00,WUHU216HW,2013-02-24 15:56:00,
2013-02-24 08:01:00,47.3,29.1,30.22,NNW,338,2.7,4.9,49,0.00,,,0.00,WUHU216HW,2013-02-24 16:01:00,
2013-02-24 08:06:00,47.5,29.8,30.22,NNW,338,0.9,4.9,50,0.00,,,0.00,WUHU216HW,2013-02-24 16:06:00,
2013-02-24 08:11:00,47.5,29.8,30.22,NW,315,2.5,4.7,50,0.00,,,0.00,WUHU216HW,2013-02-24 16:11:00,
2013-02-24 08:16:00,47.5,30.3,30.22,NNW,338,2.5,4.7,51,0.00,,,0.00,WUHU216HW,2013-02-24 16:16:00,
2013-02-24 08:21:00,48.1,31.2,30.22,NW,315,2.0,3.6,52,0.00,,,0.00,WUHU216HW,2013-02-24 16:21:00,
2013-02-24 08:26:00,48.4,31.1,30.22,NNW,338,3.4,4.3,51,0.00,,,0.00,WUHU216HW,2013-02-24 16:26:00,
2013-02-24 08:31:00,48.8,30.4,30.22,NW,315,3.6,4.5,49,0.00,,,0.00,WUHU216HW,2013-02-24 16:31:00,
2013-02-24 08:36:00,49.3,31.0,30.22,WNW,293,0.9,4.5,49,0.00,,,0.00,WUHU216HW,2013-02-24 16:36:00,
2013-02-24 08:41:00,49.7,30.3,30.22,WNW,293,3.4,4.7,47,0.00,,,0.00,WUHU216HW,2013-02-24 16:41:00,
2013-02-24 08:46:00,50.0,30.5,30.22,NNW,338,2.5,4.7,47,0.00,,,0.00,WUHU216HW,2013-02-24 16:46:00,
2013-02-24 08:51:00,50.6,30.5,30.23,WNW,293,2.5,4.0,46,0.00,,,0.00,WUHU216HW,2013-02-24 16:51:00,
2013-02-24 08:56:00,51.1,30.4,30.22,West,270,2.5,5.1,45,0.00,,,0.00,WUHU216HW,2013-02-24 16:56:00,
2013-02-24 09:01:00,51.5,30.2,30.22,NW,315,5.4,5.8,44,0.00,,,0.00,WUHU216HW,2013-02-24 17:01:00,
2013-02-24 09:06:00,51.8,29.3,30.22,WNW,293,4.0,7.6,42,0.00,,,0.00,WUHU216HW,2013-02-24 17:06:00,
2013-02-24 09:11:00,52.4,29.9,30.22,NNW,338,3.4,7.6,42,0.00,,,0.00,WUHU216HW,2013-02-24 17:11:00,
2013-02-24 09:16:00,52.6,28.3,30.23,NW,315,6.9,7.6,39,0.00,,,0.00,WUHU216HW,2013-02-24 17:16:00,
2013-02-24 09:21:00,52.7,27.7,30.22,West,270,4.5,7.6,38,0.00,,,0.00,WUHU216HW,2013-02-24 17:21:00,
2013-02-24 09:26:00,52.7,27.7,30.23,NW,315,6.3,7.6,38,0.00,,,0.00,WUHU216HW,2013-02-24 17:26:00,
2013-02-24 09:31:00,52.9,27.2,30.23,NNW,338,3.6,7.6,37,0.00,,,0.00,WUHU216HW,2013-02-24 17:31:00,
2013-02-24 09:36:00,53.3,27.6,30.22,NNW,338,5.6,8.7,37,0.00,,,0.00,WUHU216HW,2013-02-24 17:36:00,
2013-02-24 09:41:00,53.6,27.8,30.22,West,270,4.0,8.7,37,0.00,,,0.00,WUHU216HW,2013-02-24 17:41:00,
2013-02-24 09:46:00,54.0,28.2,30.23,SW,225,7.8,7.8,37,0.00,,,0.00,WUHU216HW,2013-02-24 17:46:00,
2013-02-24 09:51:00,54.4,27.7,30.23,NW,315,2.5,7.8,36,0.00,,,0.00,WUHU216HW,2013-02-24 17:51:00,
2013-02-24 09:56:00,54.7,28.1,30.23,NW,315,5.4,7.8,36,0.00,,,0.00,WUHU216HW,2013-02-24 17:56:00,
2013-02-24 10:01:00,55.3,27.2,30.22,SSW,203,5.4,6.9,34,0.00,,,0.00,WUHU216HW,2013-02-24 18:01:00,
2013-02-24 10:06:00,55.6,27.5,30.23,NW,315,6.0,9.4,34,0.00,,,0.00,WUHU216HW,2013-02-24 18:06:00,
2013-02-24 10:11:00,55.8,26.9,30.22,NW,315,7.2,9.4,33,0.00,,,0.00,WUHU216HW,2013-02-24 18:11:00,
2013-02-24 10:16:00,56.0,27.1,30.22,WNW,293,5.4,10.5,33,0.00,,,0.00,WUHU216HW,2013-02-24 18:16:00,
2013-02-24 10:21:00,56.3,28.1,30.22,NW,315,5.4,10.5,34,0.00,,,0.00,WUHU216HW,2013-02-24 18:21:00,
2013-02-24 10:26:00,56.7,27.0,30.21,NW,315,4.0,8.1,32,0.00,,,0.00,WUHU216HW,2013-02-24 18:26:00,
2013-02-24 10:31:00,57.2,27.6,30.21,WNW,293,3.4,7.6,32,0.00,,,0.00,WUHU216HW,2013-02-24 18:31:00,
2013-02-24 10:36:00,57.4,27.0,30.22,NW,315,4.9,8.3,31,0.00,,,0.00,WUHU216HW,2013-02-24 18:36:00,
2013-02-24 10:41:00,57.6,27.1,30.21,NNW,338,4.7,10.5,31,0.00,,,0.00,WUHU216HW,2013-02-24 18:41:00,
2013-02-24 10:46:00,58.0,24.9,30.21,NW,315,7.8,10.5,28,0.00,,,0.00,WUHU216HW,2013-02-24 18:46:00,
2013-02-24 10:51:00,58.9,25.7,30.20,North,0,6.9,8.5,28,0.00,,,0.00,WUHU216HW,2013-02-24 18:51:00,
2013-02-24 10:56:00,58.7,23.5,30.20,NNE,23,7.8,11.4,26,0.00,,,0.00,WUHU216HW,2013-02-24 18:56:00,
2013-02-24 11:01:00,59.2,24.9,30.20,North,0,6.5,11.4,27,0.00,,,0.00,WUHU216HW,2013-02-24 19:01:00,
2013-02-24 11:06:00,59.8,23.5,30.20,NNW,338,6.9,11.4,25,0.00,,,0.00,WUHU216HW,2013-02-24 19:06:00,
2013-02-24 11:11:00,60.1,23.8,30.20,NW,315,6.3,10.5,25,0.00,,,0.00,WUHU216HW,2013-02-24 19:11:00,
2013-02-24 11:16:00,60.5,23.1,30.20,NNW,338,3.8,9.8,24,0.00,,,0.00,WUHU216HW,2013-02-24 19:16:00,
2013-02-24 11:21:00,60.5,22.1,30.19,NW,315,3.4,8.7,23,0.00,,,0.00,WUHU216HW,2013-02-24 19:21:00,
2013-02-24 11:26:00,60.8,23.4,30.20,NNW,338,5.6,8.5,24,0.00,,,0.00,WUHU216HW,2013-02-24 19:26:00,
2013-02-24 11:31:00,61.4,23.9,30.19,NNW,338,4.0,7.8,24,0.00,,,0.00,WUHU216HW,2013-02-24 19:31:00,
2013-02-24 11:36:00,60.8,23.4,30.19,NW,315,5.8,9.6,24,0.00,,,0.00,WUHU216HW,2013-02-24 19:36:00,
2013-02-24 11:41:00,60.8,23.4,30.19,North,0,2.5,9.6,24,0.00,,,0.00,WUHU216HW,2013-02-24 19:41:00,
2013-02-24 11:46:00,61.7,22.2,30.19,NW,315,6.9,9.2,22,0.00,,,0.00,WUHU216HW,2013-02-24 19:46:00,
2013-02-24 11:51:00,62.1,24.5,30.19,North,0,7.4,9.4,24,0.00,,,0.00,WUHU216HW,2013-02-24 19:51:00,
2013-02-24 11:56:00,61.7,22.2,30.19,North,0,5.8,9.4,22,0.00,,,0.00,WUHU216HW,2013-02-24 19:56:00,
2013-02-24 12:01:00,61.9,22.4,30.19,NW,315,4.5,9.8,22,0.00,,,0.00,WUHU216HW,2013-02-24 20:01:00,
2013-02-24 12:06:00,62.1,22.6,30.19,WNW,293,7.6,9.8,22,0.00,,,0.00,WUHU216HW,2013-02-24 20:06:00,
2013-02-24 12:11:00,62.3,23.7,30.18,NW,315,7.6,8.5,23,0.00,,,0.00,WUHU216HW,2013-02-24 20:11:00,
2013-02-24 12:16:00,62.3,23.7,30.18,NW,315,5.1,8.9,23,0.00,,,0.00,WUHU216HW,2013-02-24 20:16:00,
2013-02-24 12:21:00,62.3,23.7,30.18,NNE,23,4.9,8.9,23,0.00,,,0.00,WUHU216HW,2013-02-24 20:21:00,
2013-02-24 12:26:00,62.3,23.7,30.18,NNE,23,4.9,8.5,23,0.00,,,0.00,WUHU216HW,2013-02-24 20:26:00,
2013-02-24 13:04:00,63.4,22.6,30.16,NNW,338,6.3,12.8,21,0.00,,,0.00,WUHU216HW,2013-02-24 21:04:00,
2013-02-24 13:09:00,63.4,23.6,30.16,WNW,293,6.5,12.8,22,0.00,,,0.00,WUHU216HW,2013-02-24 21:09:00,
2013-02-24 13:14:00,63.7,23.0,30.16,North,0,5.8,11.4,21,0.00,,,0.00,WUHU216HW,2013-02-24 21:14:00,
2013-02-24 13:19:00,64.3,24.3,30.15,NW,315,5.8,11.4,22,0.00,,,0.00,WUHU216HW,2013-02-24 21:19:00,
2013-02-24 13:24:00,64.4,24.5,30.15,WNW,293,7.4,9.8,22,0.00,,,0.00,WUHU216HW,2013-02-24 21:24:00,
2013-02-24 13:29:00,65.2,24.0,30.15,NNW,338,6.9,9.6,21,0.00,,,0.00,WUHU216HW,2013-02-24 21:29:00,
2013-02-24 13:34:00,64.3,23.3,30.14,NNW,338,9.8,9.8,21,0.00,,,0.00,WUHU216HW,2013-02-24 21:34:00,
2013-02-24 13:39:00,63.4,23.6,30.14,NW,315,9.2,10.5,22,0.00,,,0.00,WUHU216HW,2013-02-24 21:39:00,
2013-02-24 13:44:00,63.2,23.5,30.15,NW,315,5.1,10.5,22,0.00,,,0.00,WUHU216HW,2013-02-24 21:44:00,
2013-02-24 13:49:00,63.5,24.8,30.14,WNW,293,5.6,9.8,23,0.00,,,0.00,WUHU216HW,2013-02-24 21:49:00,
2013-02-24 13:54:00,63.7,24.8,30.14,NNW,338,8.3,10.5,23,0.00,,,0.00,WUHU216HW,2013-02-24 21:54:00,
2013-02-24 13:59:00,63.9,25.0,30.14,NNW,338,4.0,11.0,23,0.00,,,0.00,WUHU216HW,2013-02-24 21:59:00,
2013-02-24 14:04:00,63.7,23.9,30.14,NNW,338,3.8,11.0,22,0.00,,,0.00,WUHU216HW,2013-02-24 22:04:00,
2013-02-24 14:09:00,63.5,24.8,30.14,North,0,6.7,9.8,23,0.00,,,0.00,WUHU216HW,2013-02-24 22:09:00,
2013-02-24 14:14:00,63.2,24.4,30.14,NNW,338,9.2,11.4,23,0.00,,,0.00,WUHU216HW,2013-02-24 22:14:00,
2013-02-24 14:19:00,63.0,23.3,30.14,NNW,338,12.1,12.5,22,0.00,,,0.00,WUHU216HW,2013-02-24 22:19:00,
2013-02-24 14:24:00,63.2,25.4,30.14,WSW,248,8.5,12.5,24,0.00,,,0.00,WUHU216HW,2013-02-24 22:24:00,
2013-02-24 14:29:00,62.8,25.1,30.14,NNW,338,7.6,12.1,24,0.00,,,0.00,WUHU216HW,2013-02-24 22:29:00,
2013-02-24 14:34:00,63.7,24.8,30.14,North,0,6.3,10.5,23,0.00,,,0.00,WUHU216HW,2013-02-24 22:34:00,
2013-02-24 14:39:00,63.2,25.4,30.14,WNW,293,4.9,10.5,24,0.00,,,0.00,WUHU216HW,2013-02-24 22:39:00,
2013-02-24 14:44:00,63.0,24.3,30.14,West,270,7.6,9.8,23,0.00,,,0.00,WUHU216HW,2013-02-24 22:44:00,
2013-02-24 14:49:00,63.0,24.3,30.14,NNW,338,7.6,9.2,23,0.00,,,0.00,WUHU216HW,2013-02-24 22:49:00,
2013-02-24 14:54:00,63.0,24.3,30.14,West,270,12.8,12.8,23,0.00,,,0.00,WUHU216HW,2013-02-24 22:54:00,
2013-02-24 14:59:00,63.4,25.6,30.14,North,0,2.7,12.8,24,0.00,,,0.00,WUHU216HW,2013-02-24 22:59:00,
2013-02-24 15:05:00,63.7,24.8,30.14,North,0,6.5,11.6,23,0.00,,,0.00,WUHU216HW,2013-02-24 23:05:00,
2013-02-24 15:10:00,63.7,24.8,30.14,North,0,6.3,11.6,23,0.00,,,0.00,WUHU216HW,2013-02-24 23:10:00,
2013-02-24 15:15:00,63.7,24.8,30.14,NNW,338,5.6,10.3,23,0.00,,,0.00,WUHU216HW,2013-02-24 23:15:00,
2013-02-24 15:20:00,63.4,25.6,30.14,WNW,293,7.6,10.3,24,0.00,,,0.00,WUHU216HW,2013-02-24 23:20:00,
2013-02-24 15:25:00,63.4,24.6,30.14,NW,315,8.3,8.5,23,0.00,,,0.00,WUHU216HW,2013-02-24 23:25:00,
2013-02-24 15:30:00,63.2,24.4,30.14,NW,315,8.5,9.6,23,0.00,,,0.00,WUHU216HW,2013-02-24 23:30:00,
2013-02-24 15:35:00,63.4,24.6,30.13,NW,315,5.8,10.1,23,0.00,,,0.00,WUHU216HW,2013-02-24 23:35:00,
2013-02-24 15:40:00,63.2,23.5,30.13,NNW,338,4.9,10.1,22,0.00,,,0.00,WUHU216HW,2013-02-24 23:40:00,
2013-02-24 15:45:00,63.0,24.3,30.13,NNW,338,3.8,11.4,23,0.00,,,0.00,WUHU216HW,2013-02-24 23:45:00,
2013-02-24 15:50:00,63.0,24.3,30.13,NW,315,6.7,11.4,23,0.00,,,0.00,WUHU216HW,2013-02-24 23:50:00,
2013-02-24 15:55:00,63.0,24.3,30.13,NW,315,5.6,9.2,23,0.00,,,0.00,WUHU216HW,2013-02-24 23:55:00,
2013-02-24 16:00:00,63.7,24.8,30.14,NNE,23,4.7,9.2,23,0.00,,,0.00,WUHU216HW,2013-02-25 00:00:00,
2013-02-24 16:05:00,63.5,24.8,30.13,NNW,338,4.0,9.2,23,0.00,,,0.00,WUHU216HW,2013-02-25 00:05:00,
2013-02-24 16:10:00,63.4,25.6,30.14,NNW,338,2.5,9.2,24,0.00,,,0.00,WUHU216HW,2013-02-25 00:10:00,
2013-02-24 16:15:00,63.4,25.6,30.14,NNW,338,2.5,7.6,24,0.00,,,0.00,WUHU216HW,2013-02-25 00:15:00,
2013-02-24 17:04:00,61.2,31.7,30.15,NW,315,4.5,6.3,33,0.00,,,0.00,WUHU216HW,2013-02-25 01:04:00,
2013-02-24 17:09:00,61.2,31.7,30.15,WSW,248,6.3,6.3,33,0.00,,,0.00,WUHU216HW,2013-02-25 01:09:00,
2013-02-24 17:14:00,61.2,31.7,30.15,WSW,248,6.3,6.3,33,0.00,,,0.00,WUHU216HW,2013-02-25 01:14:00,
2013-02-24 18:04:00,57.2,36.0,30.16,WNW,293,2.5,3.6,45,0.00,,,0.00,WUHU216HW,2013-02-25 02:04:00,
2013-02-24 18:09:00,57.1,36.4,30.16,NNW,338,1.8,3.6,46,0.00,,,0.00,WUHU216HW,2013-02-25 02:09:00,
2013-02-24 18:14:00,56.7,36.6,30.16,NW,315,0.9,3.4,47,0.00,,,0.00,WUHU216HW,2013-02-25 02:14:00,
2013-02-24 18:19:00,56.5,36.5,30.16,NNW,338,1.6,3.4,47,0.00,,,0.00,WUHU216HW,2013-02-25 02:19:00,
2013-02-24 18:24:00,56.3,36.8,30.16,NNW,338,2.5,3.1,48,0.00,,,0.00,WUHU216HW,2013-02-25 02:24:00,
2013-02-24 18:29:00,56.2,36.6,30.16,NNW,338,1.8,2.7,48,0.00,,,0.00,WUHU216HW,2013-02-25 02:29:00,
2013-02-24 18:34:00,56.0,35.9,30.16,NW,315,1.8,2.7,47,0.00,,,0.00,WUHU216HW,2013-02-25 02:34:00,
2013-02-24 18:39:00,55.8,35.7,30.16,NNW,338,3.1,3.4,47,0.00,,,0.00,WUHU216HW,2013-02-25 02:39:00,
2013-02-24 18:44:00,55.8,35.7,30.16,NNW,338,0.4,3.4,47,0.00,,,0.00,WUHU216HW,2013-02-25 02:44:00,
2013-02-24 18:49:00,55.4,36.0,30.17,NW,315,1.6,3.1,48,0.00,,,0.00,WUHU216HW,2013-02-25 02:49:00,
2013-02-24 18:54:00,55.1,36.2,30.17,NNW,338,1.3,2.5,49,0.00,,,0.00,WUHU216HW,2013-02-25 02:54:00,
2013-02-24 18:59:00,54.7,35.9,30.18,NNW,338,1.1,1.8,49,0.00,,,0.00,WUHU216HW,2013-02-25 02:59:00,
2013-02-24 19:04:00,54.7,36.5,30.18,NNW,338,0.9,1.8,50,0.00,,,0.00,WUHU216HW,2013-02-25 03:04:00,
2013-02-24 19:09:00,54.4,35.6,30.18,NW,315,0.4,1.1,49,0.00,,,0.00,WUHU216HW,2013-02-25 03:09:00,
2013-02-24 19:14:00,54.2,35.9,30.18,NNW,338,0.4,1.8,50,0.00,,,0.00,WUHU216HW,2013-02-25 03:14:00,
2013-02-24 19:20:00,54.0,36.3,30.18,NNW,338,0.4,1.8,51,0.00,,,0.00,WUHU216HW,2013-02-25 03:20:00,
2013-02-24 19:25:00,53.6,35.5,30.18,NNW,338,0.0,1.8,50,0.00,,,0.00,WUHU216HW,2013-02-25 03:25:00,
2013-02-24 19:30:00,53.1,35.0,30.18,NNW,338,0.0,0.4,50,0.00,,,0.00,WUHU216HW,2013-02-25 03:30:00,
2013-02-24 19:35:00,52.6,35.8,30.18,WNW,293,1.1,1.8,53,0.00,,,0.00,WUHU216HW,2013-02-25 03:35:00,
2013-02-24 19:40:00,52.6,35.8,30.18,WNW,293,1.1,1.8,53,0.00,,,0.00,WUHU216HW,2013-02-25 03:40:00,
2013-02-24 20:04:00,51.5,37.1,30.19,East,90,0.4,2.0,58,0.00,,,0.00,WUHU216HW,2013-02-25 04:04:00,
2013-02-24 20:09:00,50.9,36.2,30.19,East,90,0.4,2.0,57,0.00,,,0.00,WUHU216HW,2013-02-25 04:09:00,
2013-02-24 20:14:00,50.6,36.3,30.19,ESE,113,0.0,0.9,58,0.00,,,0.00,WUHU216HW,2013-02-25 04:14:00,
2013-02-24 20:19:00,50.0,36.3,30.20,ESE,113,0.9,1.3,59,0.00,,,0.00,WUHU216HW,2013-02-25 04:19:00,
2013-02-24 20:24:00,49.7,35.9,30.20,ESE,113,0.9,1.3,59,0.00,,,0.00,WUHU216HW,2013-02-25 04:24:00,
2013-02-24 20:29:00,49.3,35.7,30.20,ESE,113,0.2,1.1,59,0.00,,,0.00,WUHU216HW,2013-02-25 04:29:00,
2013-02-24 20:34:00,49.1,36.7,30.20,ESE,113,0.9,1.3,62,0.00,,,0.00,WUHU216HW,2013-02-25 04:34:00,
2013-02-24 20:39:00,49.1,37.1,30.21,ESE,113,0.4,1.3,63,0.00,,,0.00,WUHU216HW,2013-02-25 04:39:00,
2013-02-24 20:44:00,48.8,37.5,30.21,East,90,1.1,1.3,65,0.00,,,0.00,WUHU216HW,2013-02-25 04:44:00,
2013-02-24 20:50:00,48.4,36.4,30.21,East,90,0.0,1.3,63,0.00,,,0.00,WUHU216HW,2013-02-25 04:50:00,
2013-02-24 20:55:00,47.9,35.5,30.21,East,90,1.3,1.3,62,0.00,,,0.00,WUHU216HW,2013-02-25 04:55:00,
2013-02-24 21:00:00,47.5,35.2,30.21,East,90,1.1,1.3,62,0.00,,,0.00,WUHU216HW,2013-02-25 05:00:00,
2013-02-24 21:05:00,47.3,35.4,30.21,East,90,0.9,1.6,63,0.00,,,0.00,WUHU216HW,2013-02-25 05:05:00,
2013-02-24 21:10:00,47.2,35.2,30.21,East,90,0.0,1.6,63,0.00,,,0.00,WUHU216HW,2013-02-25 05:10:00,
2013-02-24 21:15:00,46.8,34.8,30.21,East,90,0.7,1.1,63,0.00,,,0.00,WUHU216HW,2013-02-25 05:15:00,
2013-02-24 21:20:00,46.4,34.9,30.21,ESE,113,0.0,1.1,64,0.00,,,0.00,WUHU216HW,2013-02-25 05:20:00,
2013-02-24 21:25:00,46.3,35.5,30.21,ESE,113,0.4,0.7,66,0.00,,,0.00,WUHU216HW,2013-02-25 05:25:00,
2013-02-24 21:30:00,46.3,36.3,30.21,East,90,0.7,0.9,68,0.00,,,0.00,WUHU216HW,2013-02-25 05:30:00,
2013-02-24 21:35:00,46.1,36.1,30.21,East,90,0.7,0.9,68,0.00,,,0.00,WUHU216HW,2013-02-25 05:35:00,
2013-02-24 21:40:00,46.1,36.1,30.22,East,90,0.7,1.1,68,0.00,,,0.00,WUHU216HW,2013-02-25 05:40:00,
2013-02-24 21:45:00,46.1,36.1,30.22,East,90,1.1,1.1,68,0.00,,,0.00,WUHU216HW,2013-02-25 05:45:00,
2013-02-24 21:50:00,45.9,35.9,30.22,East,90,1.1,1.1,68,0.00,,,0.00,WUHU216HW,2013-02-25 05:50:00,
2013-02-24 21:55:00,45.7,35.7,30.22,East,90,1.1,1.1,68,0.00,,,0.00,WUHU216HW,2013-02-25 05:55:00,
2013-02-24 22:00:00,45.4,35.0,30.22,East,90,0.2,1.1,67,0.00,,,0.00,WUHU216HW,2013-02-25 06:00:00,
2013-02-24 22:05:00,45.0,35.1,30.22,ESE,113,0.9,1.1,68,0.00,,,0.00,WUHU216HW,2013-02-25 06:05:00,
2013-02-24 22:10:00,44.8,34.9,30.22,ESE,113,0.0,0.9,68,0.00,,,0.00,WUHU216HW,2013-02-25 06:10:00,
2013-02-24 22:15:00,44.6,34.8,30.22,East,90,0.0,0.9,68,0.00,,,0.00,WUHU216HW,2013-02-25 06:15:00,
2013-02-24 22:20:00,44.5,35.3,30.22,East,90,0.4,0.7,70,0.00,,,0.00,WUHU216HW,2013-02-25 06:20:00,
2013-02-24 22:25:00,44.8,36.4,30.22,East,90,0.0,0.7,72,0.00,,,0.00,WUHU216HW,2013-02-25 06:25:00,
2013-02-24 22:30:00,44.8,35.6,30.22,East,90,0.7,1.1,70,0.00,,,0.00,WUHU216HW,2013-02-25 06:30:00,
2013-02-24 22:35:00,44.5,34.9,30.22,East,90,0.4,1.1,69,0.00,,,0.00,WUHU216HW,2013-02-25 06:35:00,
2013-02-24 22:40:00,44.1,35.0,30.22,East,90,0.9,1.1,70,0.00,,,0.00,WUHU216HW,2013-02-25 06:40:00,
2013-02-24 22:45:00,43.9,35.5,30.22,East,90,0.9,1.1,72,0.00,,,0.00,WUHU216HW,2013-02-25 06:45:00,
2013-02-24 22:50:00,43.9,35.5,30.22,East,90,0.4,1.1,72,0.00,,,0.00,WUHU216HW,2013-02-25 06:50:00,
2013-02-24 22:55:00,43.6,34.8,30.22,East,90,0.0,1.1,71,0.00,,,0.00,WUHU216HW,2013-02-25 06:55:00,
2013-02-24 23:00:00,43.2,34.5,30.22,East,90,0.0,0.4,71,0.00,,,0.00,WUHU216HW,2013-02-25 07:00:00,
2013-02-24 23:05:00,42.8,34.2,30.22,East,90,0.0,0.2,71,0.00,,,0.00,WUHU216HW,2013-02-25 07:05:00,
2013-02-24 23:10:00,42.5,34.1,30.23,East,90,0.0,0.4,72,0.00,,,0.00,WUHU216HW,2013-02-25 07:10:00,
2013-02-24 23:15:00,42.3,34.6,30.22,East,90,1.1,1.1,74,0.00,,,0.00,WUHU216HW,2013-02-25 07:15:00,
2013-02-24 23:20:00,43.2,35.5,30.23,East,90,0.0,1.1,74,0.00,,,0.00,WUHU216HW,2013-02-25 07:20:00,
2013-02-24 23:25:00,43.4,35.3,30.22,East,90,0.9,1.1,73,0.00,,,0.00,WUHU216HW,2013-02-25 07:25:00,
2013-02-24 23:30:00,43.4,35.0,30.23,East,90,0.9,1.1,72,0.00,,,0.00,WUHU216HW,2013-02-25 07:30:00,
2013-02-24 23:35:00,43.2,34.8,30.23,East,90,0.7,1.1,72,0.00,,,0.00,WUHU216HW,2013-02-25 07:35:00,
2013-02-24 23:40:00,43.2,34.8,30.23,East,90,1.1,1.1,72,0.00,,,0.00,WUHU216HW,2013-02-25 07:40:00,
2013-02-24 23:45:00,43.0,34.7,30.23,ENE,68,1.1,1.3,72,0.00,,,0.00,WUHU216HW,2013-02-25 07:45:00,
2013-02-24 23:50:00,42.8,34.5,30.23,ENE,68,0.9,1.3,72,0.00,,,0.00,WUHU216HW,2013-02-25 07:50:00,
2013-02-24 23:55:00,42.8,34.5,30.24,ENE,68,0.0,1.1,72,0.00,,,0.00,WUHU216HW,2013-02-25 07:55:00,